sensor_id;sensor_type;location;lat;lon;timestamp;P1;durP1;ratioP1;P2;durP2;ratioP2
69856;SDS011;57147;53.582;10.112;2023-05-07T00:04:27;14.20;;;8.20;;
69856;SDS011;57147;53.582;10.112;2023-05-07T00:09:31;10.00;;;6.35;;
69856;SDS011;57147;53.582;10.112;2023-05-07T00:14:32;9.90;;;7.80;;
69856;SDS011;57147;53.582;10.112;2023-05-07T00:19:36;9.60;;;6.65;;
69856;SDS011;57147;53.582;10.112;2023-05-07T00:24:40;12.13;;;7.68;;
69856;SDS011;57147;53.582;10.112;2023-05-07T00:29:41;10.13;;;7.65;;
69856;SDS011;57147;53.582;10.112;2023-05-07T00:34:42;10.45;;;8.27;;
69856;SDS011;57147;53.582;10.112;2023-05-07T00:39:45;10.43;;;6.90;;
69856;SDS011;57147;53.582;10.112;2023-05-07T00:44:46;11.25;;;8.20;;
69856;SDS011;57147;53.582;10.112;2023-05-07T00:49:48;10.65;;;7.45;;
69856;SDS011;57147;53.582;10.112;2023-05-07T00:54:51;11.20;;;7.80;;
69856;SDS011;57147;53.582;10.112;2023-05-07T00:59:52;12.10;;;7.82;;
69856;SDS011;57147;53.582;10.112;2023-05-07T01:04:53;10.15;;;6.72;;
69856;SDS011;57147;53.582;10.112;2023-05-07T01:09:58;10.35;;;7.70;;
69856;SDS011;57147;53.582;10.112;2023-05-07T01:14:59;9.63;;;7.25;;
69856;SDS011;57147;53.582;10.112;2023-05-07T01:20:00;8.50;;;6.75;;
69856;SDS011;57147;53.582;10.112;2023-05-07T01:25:03;9.48;;;6.70;;
69856;SDS011;57147;53.582;10.112;2023-05-07T01:30:05;9.30;;;7.28;;
69856;SDS011;57147;53.582;10.112;2023-05-07T01:35:07;10.10;;;6.68;;
69856;SDS011;57147;53.582;10.112;2023-05-07T01:40:13;9.50;;;8.05;;
69856;SDS011;57147;53.582;10.112;2023-05-07T01:45:14;11.27;;;6.88;;
69856;SDS011;57147;53.582;10.112;2023-05-07T01:50:15;11.15;;;7.88;;
69856;SDS011;57147;53.582;10.112;2023-05-07T01:55:21;12.23;;;10.65;;
69856;SDS011;57147;53.582;10.112;2023-05-07T02:00:22;10.70;;;7.85;;
69856;SDS011;57147;53.582;10.112;2023-05-07T02:05:23;11.77;;;9.20;;
69856;SDS011;57147;53.582;10.112;2023-05-07T02:10:26;9.45;;;6.65;;
69856;SDS011;57147;53.582;10.112;2023-05-07T02:15:27;8.98;;;6.05;;
69856;SDS011;57147;53.582;10.112;2023-05-07T02:20:28;7.82;;;5.85;;
69856;SDS011;57147;53.582;10.112;2023-05-07T02:25:31;10.88;;;7.25;;
69856;SDS011;57147;53.582;10.112;2023-05-07T02:30:32;8.95;;;5.95;;
69856;SDS011;57147;53.582;10.112;2023-05-07T02:35:33;11.43;;;9.30;;
69856;SDS011;57147;53.582;10.112;2023-05-07T02:40:36;9.32;;;7.28;;
69856;SDS011;57147;53.582;10.112;2023-05-07T02:45:37;10.23;;;6.85;;
69856;SDS011;57147;53.582;10.112;2023-05-07T02:50:37;11.68;;;7.75;;
69856;SDS011;57147;53.582;10.112;2023-05-07T02:55:40;10.20;;;7.25;;
69856;SDS011;57147;53.582;10.112;2023-05-07T03:00:41;10.82;;;7.75;;
69856;SDS011;57147;53.582;10.112;2023-05-07T03:05:42;9.80;;;6.47;;
69856;SDS011;57147;53.582;10.112;2023-05-07T03:10:45;9.65;;;6.40;;
69856;SDS011;57147;53.582;10.112;2023-05-07T03:15:47;10.40;;;7.57;;
69856;SDS011;57147;53.582;10.112;2023-05-07T03:20:48;11.00;;;6.80;;
69856;SDS011;57147;53.582;10.112;2023-05-07T03:25:51;10.93;;;6.80;;
69856;SDS011;57147;53.582;10.112;2023-05-07T03:30:52;8.88;;;6.53;;
69856;SDS011;57147;53.582;10.112;2023-05-07T03:35:52;9.63;;;6.85;;
69856;SDS011;57147;53.582;10.112;2023-05-07T03:40:56;11.50;;;7.82;;
69856;SDS011;57147;53.582;10.112;2023-05-07T03:45:56;9.90;;;7.03;;
69856;SDS011;57147;53.582;10.112;2023-05-07T03:50:57;11.07;;;8.18;;
69856;SDS011;57147;53.582;10.112;2023-05-07T03:56:00;10.02;;;6.97;;
69856;SDS011;57147;53.582;10.112;2023-05-07T04:01:01;14.13;;;9.65;;
69856;SDS011;57147;53.582;10.112;2023-05-07T04:06:02;17.30;;;11.40;;
69856;SDS011;57147;53.582;10.112;2023-05-07T04:11:05;8.80;;;6.32;;
69856;SDS011;57147;53.582;10.112;2023-05-07T04:16:06;12.15;;;7.93;;
69856;SDS011;57147;53.582;10.112;2023-05-07T04:21:13;9.88;;;7.00;;
69856;SDS011;57147;53.582;10.112;2023-05-07T04:26:16;9.90;;;5.95;;
69856;SDS011;57147;53.582;10.112;2023-05-07T04:31:17;9.82;;;6.80;;
69856;SDS011;57147;53.582;10.112;2023-05-07T04:36:17;10.75;;;6.82;;
69856;SDS011;57147;53.582;10.112;2023-05-07T04:41:21;12.38;;;8.65;;
69856;SDS011;57147;53.582;10.112;2023-05-07T04:46:21;9.50;;;6.53;;
69856;SDS011;57147;53.582;10.112;2023-05-07T04:51:22;9.50;;;6.57;;
69856;SDS011;57147;53.582;10.112;2023-05-07T04:56:25;9.32;;;6.70;;
69856;SDS011;57147;53.582;10.112;2023-05-07T05:01:27;9.45;;;6.38;;
69856;SDS011;57147;53.582;10.112;2023-05-07T05:06:28;9.35;;;6.65;;
69856;SDS011;57147;53.582;10.112;2023-05-07T05:11:31;8.52;;;6.75;;
69856;SDS011;57147;53.582;10.112;2023-05-07T05:16:32;7.70;;;5.43;;
69856;SDS011;57147;53.582;10.112;2023-05-07T05:21:33;9.30;;;6.30;;
69856;SDS011;57147;53.582;10.112;2023-05-07T05:26:36;8.63;;;6.07;;
69856;SDS011;57147;53.582;10.112;2023-05-07T05:31:36;8.85;;;6.65;;
69856;SDS011;57147;53.582;10.112;2023-05-07T05:36:37;8.20;;;6.80;;
69856;SDS011;57147;53.582;10.112;2023-05-07T05:41:40;9.73;;;6.57;;
69856;SDS011;57147;53.582;10.112;2023-05-07T05:46:41;9.73;;;6.70;;
69856;SDS011;57147;53.582;10.112;2023-05-07T05:51:42;9.02;;;7.88;;
69856;SDS011;57147;53.582;10.112;2023-05-07T05:56:46;26.02;;;17.90;;
69856;SDS011;57147;53.582;10.112;2023-05-07T06:01:46;9.18;;;6.32;;
69856;SDS011;57147;53.582;10.112;2023-05-07T06:06:47;8.68;;;6.38;;
69856;SDS011;57147;53.582;10.112;2023-05-07T06:11:50;7.55;;;5.88;;
69856;SDS011;57147;53.582;10.112;2023-05-07T06:16:51;7.28;;;5.28;;
69856;SDS011;57147;53.582;10.112;2023-05-07T06:21:54;8.57;;;5.80;;
69856;SDS011;57147;53.582;10.112;2023-05-07T06:26:57;7.38;;;5.20;;
69856;SDS011;57147;53.582;10.112;2023-05-07T06:32:05;9.70;;;6.32;;
69856;SDS011;57147;53.582;10.112;2023-05-07T06:37:06;6.57;;;4.90;;
69856;SDS011;57147;53.582;10.112;2023-05-07T06:42:10;7.30;;;5.60;;
69856;SDS011;57147;53.582;10.112;2023-05-07T06:47:11;7.15;;;6.03;;
69856;SDS011;57147;53.582;10.112;2023-05-07T06:52:12;7.30;;;5.47;;
69856;SDS011;57147;53.582;10.112;2023-05-07T06:57:15;8.50;;;6.53;;
69856;SDS011;57147;53.582;10.112;2023-05-07T07:02:16;6.88;;;5.68;;
69856;SDS011;57147;53.582;10.112;2023-05-07T07:07:17;8.20;;;6.70;;
69856;SDS011;57147;53.582;10.112;2023-05-07T07:12:20;7.63;;;5.50;;
69856;SDS011;57147;53.582;10.112;2023-05-07T07:17:21;7.03;;;5.18;;
69856;SDS011;57147;53.582;10.112;2023-05-07T07:22:22;8.25;;;5.75;;
69856;SDS011;57147;53.582;10.112;2023-05-07T07:27:25;9.05;;;6.03;;
69856;SDS011;57147;53.582;10.112;2023-05-07T07:32:25;6.70;;;4.78;;
69856;SDS011;57147;53.582;10.112;2023-05-07T07:37:26;8.88;;;7.78;;
69856;SDS011;57147;53.582;10.112;2023-05-07T07:42:29;6.60;;;4.95;;
69856;SDS011;57147;53.582;10.112;2023-05-07T07:47:30;8.77;;;5.28;;
69856;SDS011;57147;53.582;10.112;2023-05-07T07:52:30;6.95;;;4.97;;
69856;SDS011;57147;53.582;10.112;2023-05-07T07:57:34;7.57;;;5.30;;
69856;SDS011;57147;53.582;10.112;2023-05-07T08:02:34;7.50;;;5.03;;
69856;SDS011;57147;53.582;10.112;2023-05-07T08:07:35;6.40;;;4.35;;
69856;SDS011;57147;53.582;10.112;2023-05-07T08:12:38;6.15;;;5.20;;
69856;SDS011;57147;53.582;10.112;2023-05-07T08:17:39;6.85;;;5.43;;
69856;SDS011;57147;53.582;10.112;2023-05-07T08:22:40;12.70;;;10.75;;
69856;SDS011;57147;53.582;10.112;2023-05-07T08:27:43;14.18;;;10.40;;
69856;SDS011;57147;53.582;10.112;2023-05-07T08:32:43;9.65;;;6.38;;
69856;SDS011;57147;53.582;10.112;2023-05-07T08:37:44;6.80;;;5.30;;
69856;SDS011;57147;53.582;10.112;2023-05-07T08:42:48;7.35;;;5.80;;
69856;SDS011;57147;53.582;10.112;2023-05-07T08:47:50;5.57;;;4.10;;
69856;SDS011;57147;53.582;10.112;2023-05-07T08:52:52;6.88;;;5.18;;
69856;SDS011;57147;53.582;10.112;2023-05-07T08:57:55;7.88;;;5.65;;
69856;SDS011;57147;53.582;10.112;2023-05-07T09:02:56;6.60;;;4.63;;
69856;SDS011;57147;53.582;10.112;2023-05-07T09:07:58;6.70;;;4.53;;
69856;SDS011;57147;53.582;10.112;2023-05-07T09:13:01;7.97;;;4.97;;
69856;SDS011;57147;53.582;10.112;2023-05-07T09:18:03;6.18;;;4.28;;
69856;SDS011;57147;53.582;10.112;2023-05-07T09:23:05;5.75;;;4.18;;
69856;SDS011;57147;53.582;10.112;2023-05-07T09:28:09;6.25;;;2.95;;
69856;SDS011;57147;53.582;10.112;2023-05-07T09:33:10;4.68;;;3.92;;
69856;SDS011;57147;53.582;10.112;2023-05-07T09:38:11;4.45;;;3.10;;
69856;SDS011;57147;53.582;10.112;2023-05-07T09:43:15;6.43;;;4.05;;
69856;SDS011;57147;53.582;10.112;2023-05-07T09:48:16;7.30;;;4.25;;
69856;SDS011;57147;53.582;10.112;2023-05-07T09:53:18;6.93;;;3.45;;
69856;SDS011;57147;53.582;10.112;2023-05-07T09:58:22;9.43;;;5.50;;
69856;SDS011;57147;53.582;10.112;2023-05-07T10:03:23;4.97;;;4.13;;
69856;SDS011;57147;53.582;10.112;2023-05-07T10:08:27;5.72;;;4.50;;
69856;SDS011;57147;53.582;10.112;2023-05-07T10:13:31;6.45;;;4.50;;
69856;SDS011;57147;53.582;10.112;2023-05-07T10:18:33;10.57;;;7.93;;
69856;SDS011;57147;53.582;10.112;2023-05-07T10:23:34;5.60;;;3.08;;
69856;SDS011;57147;53.582;10.112;2023-05-07T10:28:38;5.00;;;3.88;;
69856;SDS011;57147;53.582;10.112;2023-05-07T10:33:42;4.97;;;4.47;;
69856;SDS011;57147;53.582;10.112;2023-05-07T10:38:47;4.57;;;3.42;;
69856;SDS011;57147;53.582;10.112;2023-05-07T10:43:50;4.93;;;3.65;;
69856;SDS011;57147;53.582;10.112;2023-05-07T10:54:19;6.68;;;4.03;;
69856;SDS011;57147;53.582;10.112;2023-05-07T10:59:33;5.18;;;3.30;;
69856;SDS011;57147;53.582;10.112;2023-05-07T11:04:35;5.20;;;2.53;;
69856;SDS011;57147;53.582;10.112;2023-05-07T11:15:00;3.92;;;2.08;;
69856;SDS011;57147;53.582;10.112;2023-05-07T11:20:01;4.03;;;2.55;;
69856;SDS011;57147;53.582;10.112;2023-05-07T11:25:02;2.88;;;2.47;;
69856;SDS011;57147;53.582;10.112;2023-05-07T11:30:06;3.75;;;2.72;;
69856;SDS011;57147;53.582;10.112;2023-05-07T11:40:09;2.95;;;2.22;;
69856;SDS011;57147;53.582;10.112;2023-05-07T11:45:14;5.15;;;3.08;;
69856;SDS011;57147;53.582;10.112;2023-05-07T11:50:23;4.05;;;2.88;;
69856;SDS011;57147;53.582;10.112;2023-05-07T11:55:24;6.00;;;4.38;;
69856;SDS011;57147;53.582;10.112;2023-05-07T12:00:27;6.32;;;4.05;;
69856;SDS011;57147;53.582;10.112;2023-05-07T12:05:28;3.33;;;2.35;;
69856;SDS011;57147;53.582;10.112;2023-05-07T12:10:29;7.18;;;4.72;;
69856;SDS011;57147;53.582;10.112;2023-05-07T12:15:32;4.38;;;3.97;;
69856;SDS011;57147;53.582;10.112;2023-05-07T12:20:35;3.00;;;2.70;;
69856;SDS011;57147;53.582;10.112;2023-05-07T12:25:37;2.83;;;1.77;;
69856;SDS011;57147;53.582;10.112;2023-05-07T12:30:41;2.35;;;1.83;;
69856;SDS011;57147;53.582;10.112;2023-05-07T12:35:43;5.20;;;3.30;;
69856;SDS011;57147;53.582;10.112;2023-05-07T12:40:44;3.10;;;1.80;;
69856;SDS011;57147;53.582;10.112;2023-05-07T12:45:49;3.28;;;1.85;;
69856;SDS011;57147;53.582;10.112;2023-05-07T12:50:51;1.83;;;1.58;;
69856;SDS011;57147;53.582;10.112;2023-05-07T12:55:52;2.38;;;0.98;;
69856;SDS011;57147;53.582;10.112;2023-05-07T13:00:57;2.17;;;1.98;;
69856;SDS011;57147;53.582;10.112;2023-05-07T13:05:59;3.90;;;2.30;;
69856;SDS011;57147;53.582;10.112;2023-05-07T13:11:03;1.85;;;1.50;;
69856;SDS011;57147;53.582;10.112;2023-05-07T13:16:07;1.98;;;1.48;;
69856;SDS011;57147;53.582;10.112;2023-05-07T13:21:09;2.13;;;1.90;;
69856;SDS011;57147;53.582;10.112;2023-05-07T13:26:09;2.72;;;1.13;;
69856;SDS011;57147;53.582;10.112;2023-05-07T13:31:13;1.80;;;0.95;;
69856;SDS011;57147;53.582;10.112;2023-05-07T13:36:14;1.80;;;1.70;;
69856;SDS011;57147;53.582;10.112;2023-05-07T13:41:16;2.95;;;1.33;;
69856;SDS011;57147;53.582;10.112;2023-05-07T13:46:29;2.33;;;1.50;;
69856;SDS011;57147;53.582;10.112;2023-05-07T13:56:46;2.03;;;1.15;;
69856;SDS011;57147;53.582;10.112;2023-05-07T14:01:49;2.25;;;2.08;;
69856;SDS011;57147;53.582;10.112;2023-05-07T14:06:49;1.48;;;0.75;;
69856;SDS011;57147;53.582;10.112;2023-05-07T14:11:50;2.65;;;1.02;;
69856;SDS011;57147;53.582;10.112;2023-05-07T14:16:53;2.10;;;0.90;;
69856;SDS011;57147;53.582;10.112;2023-05-07T14:21:54;4.13;;;1.15;;
69856;SDS011;57147;53.582;10.112;2023-05-07T14:26:55;3.35;;;2.42;;
69856;SDS011;57147;53.582;10.112;2023-05-07T14:31:58;2.08;;;1.13;;
69856;SDS011;57147;53.582;10.112;2023-05-07T14:36:59;2.33;;;0.60;;
69856;SDS011;57147;53.582;10.112;2023-05-07T14:42:00;1.63;;;1.13;;
69856;SDS011;57147;53.582;10.112;2023-05-07T14:47:03;2.05;;;1.85;;
69856;SDS011;57147;53.582;10.112;2023-05-07T14:52:04;1.30;;;1.13;;
69856;SDS011;57147;53.582;10.112;2023-05-07T14:57:15;1.88;;;1.67;;
69856;SDS011;57147;53.582;10.112;2023-05-07T15:02:16;1.63;;;0.70;;
69856;SDS011;57147;53.582;10.112;2023-05-07T15:07:17;2.15;;;1.30;;
69856;SDS011;57147;53.582;10.112;2023-05-07T15:12:20;3.03;;;2.83;;
69856;SDS011;57147;53.582;10.112;2023-05-07T15:17:20;3.28;;;1.08;;
69856;SDS011;57147;53.582;10.112;2023-05-07T15:22:21;2.03;;;1.65;;
69856;SDS011;57147;53.582;10.112;2023-05-07T15:27:24;2.17;;;1.33;;
69856;SDS011;57147;53.582;10.112;2023-05-07T15:32:25;1.58;;;0.93;;
69856;SDS011;57147;53.582;10.112;2023-05-07T15:37:26;3.33;;;1.52;;
69856;SDS011;57147;53.582;10.112;2023-05-07T15:42:29;1.65;;;1.10;;
69856;SDS011;57147;53.582;10.112;2023-05-07T15:47:30;3.60;;;2.35;;
69856;SDS011;57147;53.582;10.112;2023-05-07T15:52:33;4.05;;;2.22;;
69856;SDS011;57147;53.582;10.112;2023-05-07T15:57:36;3.22;;;1.77;;
69856;SDS011;57147;53.582;10.112;2023-05-07T16:02:36;3.38;;;2.33;;
69856;SDS011;57147;53.582;10.112;2023-05-07T16:07:37;2.25;;;1.40;;
69856;SDS011;57147;53.582;10.112;2023-05-07T16:12:41;3.08;;;1.65;;
69856;SDS011;57147;53.582;10.112;2023-05-07T16:22:45;2.70;;;1.02;;
69856;SDS011;57147;53.582;10.112;2023-05-07T16:27:48;1.83;;;1.08;;
69856;SDS011;57147;53.582;10.112;2023-05-07T16:32:48;3.00;;;1.50;;
69856;SDS011;57147;53.582;10.112;2023-05-07T16:37:49;2.72;;;1.20;;
69856;SDS011;57147;53.582;10.112;2023-05-07T16:42:52;3.00;;;1.20;;
69856;SDS011;57147;53.582;10.112;2023-05-07T16:47:53;2.47;;;0.93;;
69856;SDS011;57147;53.582;10.112;2023-05-07T16:52:53;2.25;;;1.27;;
69856;SDS011;57147;53.582;10.112;2023-05-07T16:57:56;1.67;;;1.08;;
69856;SDS011;57147;53.582;10.112;2023-05-07T17:02:57;1.95;;;1.08;;
69856;SDS011;57147;53.582;10.112;2023-05-07T17:07:58;1.30;;;0.63;;
69856;SDS011;57147;53.582;10.112;2023-05-07T17:13:01;2.28;;;1.45;;
69856;SDS011;57147;53.582;10.112;2023-05-07T17:18:02;1.27;;;1.13;;
69856;SDS011;57147;53.582;10.112;2023-05-07T17:23:02;1.63;;;1.00;;
69856;SDS011;57147;53.582;10.112;2023-05-07T17:28:06;2.10;;;1.20;;
69856;SDS011;57147;53.582;10.112;2023-05-07T17:33:06;3.50;;;1.00;;
69856;SDS011;57147;53.582;10.112;2023-05-07T17:38:07;2.63;;;1.92;;
69856;SDS011;57147;53.582;10.112;2023-05-07T17:43:10;2.13;;;1.10;;
69856;SDS011;57147;53.582;10.112;2023-05-07T17:48:11;3.85;;;1.42;;
69856;SDS011;57147;53.582;10.112;2023-05-07T17:53:11;2.40;;;1.13;;
69856;SDS011;57147;53.582;10.112;2023-05-07T17:58:15;2.72;;;1.38;;
69856;SDS011;57147;53.582;10.112;2023-05-07T18:03:15;3.17;;;2.08;;
69856;SDS011;57147;53.582;10.112;2023-05-07T18:08:16;2.38;;;1.15;;
69856;SDS011;57147;53.582;10.112;2023-05-07T18:13:20;3.28;;;1.42;;
69856;SDS011;57147;53.582;10.112;2023-05-07T18:18:20;3.30;;;1.45;;
69856;SDS011;57147;53.582;10.112;2023-05-07T18:23:21;3.33;;;1.33;;
69856;SDS011;57147;53.582;10.112;2023-05-07T18:28:24;2.13;;;1.35;;
69856;SDS011;57147;53.582;10.112;2023-05-07T18:33:25;2.13;;;0.90;;
69856;SDS011;57147;53.582;10.112;2023-05-07T18:38:25;4.30;;;1.55;;
69856;SDS011;57147;53.582;10.112;2023-05-07T18:43:28;5.30;;;3.25;;
69856;SDS011;57147;53.582;10.112;2023-05-07T18:48:29;4.72;;;2.47;;
69856;SDS011;57147;53.582;10.112;2023-05-07T18:53:30;4.03;;;2.50;;
69856;SDS011;57147;53.582;10.112;2023-05-07T18:58:33;2.95;;;0.98;;
69856;SDS011;57147;53.582;10.112;2023-05-07T19:03:34;2.97;;;1.85;;
69856;SDS011;57147;53.582;10.112;2023-05-07T19:08:34;2.47;;;1.30;;
69856;SDS011;57147;53.582;10.112;2023-05-07T19:13:37;3.65;;;1.35;;
69856;SDS011;57147;53.582;10.112;2023-05-07T19:18:38;19.08;;;12.15;;
69856;SDS011;57147;53.582;10.112;2023-05-07T19:23:39;3.40;;;1.60;;
69856;SDS011;57147;53.582;10.112;2023-05-07T19:28:42;6.88;;;4.18;;
69856;SDS011;57147;53.582;10.112;2023-05-07T19:33:43;2.67;;;1.50;;
69856;SDS011;57147;53.582;10.112;2023-05-07T19:38:43;3.60;;;2.75;;
69856;SDS011;57147;53.582;10.112;2023-05-07T19:43:47;6.97;;;2.63;;
69856;SDS011;57147;53.582;10.112;2023-05-07T19:48:47;3.45;;;1.95;;
69856;SDS011;57147;53.582;10.112;2023-05-07T19:53:48;4.78;;;2.20;;
69856;SDS011;57147;53.582;10.112;2023-05-07T19:58:51;4.03;;;2.83;;
69856;SDS011;57147;53.582;10.112;2023-05-07T20:03:52;6.63;;;3.53;;
69856;SDS011;57147;53.582;10.112;2023-05-07T20:08:53;9.52;;;4.38;;
69856;SDS011;57147;53.582;10.112;2023-05-07T20:13:56;10.13;;;5.18;;
69856;SDS011;57147;53.582;10.112;2023-05-07T20:18:57;7.95;;;4.43;;
69856;SDS011;57147;53.582;10.112;2023-05-07T20:23:58;4.80;;;2.88;;
69856;SDS011;57147;53.582;10.112;2023-05-07T20:29:01;4.43;;;2.20;;
69856;SDS011;57147;53.582;10.112;2023-05-07T20:34:02;15.85;;;10.07;;
69856;SDS011;57147;53.582;10.112;2023-05-07T20:39:02;21.23;;;12.35;;
69856;SDS011;57147;53.582;10.112;2023-05-07T20:44:06;22.45;;;12.43;;
69856;SDS011;57147;53.582;10.112;2023-05-07T20:49:06;8.18;;;4.82;;
69856;SDS011;57147;53.582;10.112;2023-05-07T20:54:07;7.80;;;6.47;;
69856;SDS011;57147;53.582;10.112;2023-05-07T20:59:10;7.60;;;3.90;;
69856;SDS011;57147;53.582;10.112;2023-05-07T21:04:11;5.30;;;3.70;;
69856;SDS011;57147;53.582;10.112;2023-05-07T21:09:11;4.63;;;3.90;;
69856;SDS011;57147;53.582;10.112;2023-05-07T21:14:15;5.22;;;3.78;;
69856;SDS011;57147;53.582;10.112;2023-05-07T21:19:15;5.03;;;2.88;;
69856;SDS011;57147;53.582;10.112;2023-05-07T21:24:16;5.13;;;2.78;;
69856;SDS011;57147;53.582;10.112;2023-05-07T21:29:19;7.18;;;5.40;;
69856;SDS011;57147;53.582;10.112;2023-05-07T21:34:20;12.45;;;7.88;;
69856;SDS011;57147;53.582;10.112;2023-05-07T21:39:20;11.60;;;7.35;;
69856;SDS011;57147;53.582;10.112;2023-05-07T21:44:24;14.32;;;8.35;;
69856;SDS011;57147;53.582;10.112;2023-05-07T21:49:27;8.68;;;5.65;;
69856;SDS011;57147;53.582;10.112;2023-05-07T21:54:28;8.40;;;5.88;;
69856;SDS011;57147;53.582;10.112;2023-05-07T21:59:31;5.63;;;3.58;;
69856;SDS011;57147;53.582;10.112;2023-05-07T22:04:31;9.10;;;5.13;;
69856;SDS011;57147;53.582;10.112;2023-05-07T22:09:32;6.57;;;3.08;;
69856;SDS011;57147;53.582;10.112;2023-05-07T22:14:35;4.88;;;2.25;;
69856;SDS011;57147;53.582;10.112;2023-05-07T22:19:36;3.35;;;2.38;;
69856;SDS011;57147;53.582;10.112;2023-05-07T22:24:37;3.90;;;2.13;;
69856;SDS011;57147;53.582;10.112;2023-05-07T22:29:40;4.38;;;2.42;;
69856;SDS011;57147;53.582;10.112;2023-05-07T22:34:41;4.07;;;2.80;;
69856;SDS011;57147;53.582;10.112;2023-05-07T22:39:41;3.38;;;2.33;;
69856;SDS011;57147;53.582;10.112;2023-05-07T22:44:44;2.83;;;2.05;;
69856;SDS011;57147;53.582;10.112;2023-05-07T22:49:45;3.03;;;1.88;;
69856;SDS011;57147;53.582;10.112;2023-05-07T22:54:46;2.47;;;1.58;;
69856;SDS011;57147;53.582;10.112;2023-05-07T22:59:51;2.38;;;1.98;;
69856;SDS011;57147;53.582;10.112;2023-05-07T23:04:52;3.00;;;1.50;;
69856;SDS011;57147;53.582;10.112;2023-05-07T23:09:53;3.20;;;2.25;;
69856;SDS011;57147;53.582;10.112;2023-05-07T23:14:56;3.47;;;2.42;;
69856;SDS011;57147;53.582;10.112;2023-05-07T23:19:57;2.47;;;1.77;;
69856;SDS011;57147;53.582;10.112;2023-05-07T23:24:57;3.03;;;1.90;;
69856;SDS011;57147;53.582;10.112;2023-05-07T23:30:00;3.25;;;2.25;;
69856;SDS011;57147;53.582;10.112;2023-05-07T23:35:01;2.10;;;1.77;;
69856;SDS011;57147;53.582;10.112;2023-05-07T23:40:02;3.08;;;2.28;;
69856;SDS011;57147;53.582;10.112;2023-05-07T23:45:07;3.63;;;1.63;;
69856;SDS011;57147;53.582;10.112;2023-05-07T23:50:08;2.67;;;2.30;;
69856;SDS011;57147;53.582;10.112;2023-05-07T23:55:09;2.47;;;1.65;;
